createdAt,value
2022-12-14T00:00:32.702Z,111.83
2022-12-14T00:05:35.021Z,105.57
2022-12-14T00:10:38.231Z,105.97
2022-12-14T00:15:52.321Z,102.03
2022-12-14T00:21:03.206Z,111.20
2022-12-14T00:26:11.637Z,108.77
2022-12-14T00:31:13.616Z,99.20
2022-12-14T00:36:20.365Z,104.03
2022-12-14T00:41:22.272Z,109.67
2022-12-14T00:46:26.086Z,109.27
2022-12-14T00:51:32.819Z,104.23
2022-12-14T00:56:35.822Z,107.57
2022-12-14T01:01:37.719Z,101.90
2022-12-14T01:06:43.696Z,113.33
2022-12-14T01:11:48.168Z,107.77
2022-12-14T01:16:50.076Z,106.77
2022-12-14T01:21:54.198Z,98.30
2022-12-14T01:26:59.227Z,103.07
2022-12-14T01:32:05.924Z,103.07
2022-12-14T01:37:07.621Z,102.13
2022-12-14T01:42:13.612Z,101.63
2022-12-14T01:47:19.695Z,105.93
2022-12-14T01:52:30.595Z,112.30
2022-12-14T01:57:41.682Z,113.20
2022-12-14T02:02:49.406Z,104.70
2022-12-14T02:07:53.312Z,101.50
2022-12-14T02:13:12.104Z,111.23
2022-12-14T02:18:24.995Z,105.27
2022-12-14T02:23:36.985Z,104.03
2022-12-14T02:28:44.731Z,100.47
2022-12-14T02:34:23.825Z,103.60
2022-12-14T02:39:51.734Z,101.77
2022-12-14T02:45:09.020Z,112.77
2022-12-14T02:50:37.358Z,99.90
2022-12-14T02:55:51.315Z,100.50
2022-12-14T03:00:58.638Z,103.77
2022-12-14T03:06:04.921Z,101.93
2022-12-14T03:11:09.890Z,108.47
2022-12-14T03:21:48.154Z,102.90
2022-12-14T03:26:56.979Z,93.63
2022-12-14T03:32:05.820Z,89.47
2022-12-14T03:37:13.960Z,93.53
2022-12-14T03:42:22.989Z,93.90
2022-12-14T03:47:44.969Z,99.17
2022-12-14T03:53:24.163Z,85.97
2022-12-14T03:58:39.285Z,95.57
2022-12-14T04:04:13.406Z,94.17
2022-12-14T04:09:35.157Z,91.83
2022-12-14T04:15:05.741Z,95.17
2022-12-14T04:20:31.161Z,88.93
2022-12-14T04:25:54.066Z,84.20
2022-12-14T04:31:15.770Z,88.37
2022-12-14T04:36:29.082Z,91.20
2022-12-14T04:41:35.116Z,85.73
2022-12-14T04:46:41.009Z,82.03
2022-12-14T04:51:51.055Z,80.30
2022-12-14T04:57:34.054Z,75.43
2022-12-14T05:03:05.934Z,78.87
2022-12-14T05:08:19.002Z,83.80
2022-12-14T05:13:26.169Z,89.60
2022-12-14T05:18:30.328Z,88.83
2022-12-14T05:23:32.063Z,84.23
2022-12-14T05:28:34.006Z,85.10
2022-12-14T05:33:35.701Z,88.73
2022-12-14T05:38:39.833Z,83.30
2022-12-14T05:43:43.868Z,78.57
2022-12-14T05:48:49.500Z,77.43
2022-12-14T05:53:54.861Z,77.80
2022-12-14T05:58:56.631Z,72.87
2022-12-14T06:04:00.709Z,76.43
2022-12-14T06:09:10.273Z,78.20
2022-12-14T06:14:15.741Z,72.27
2022-12-14T06:19:21.851Z,75.83
2022-12-14T06:24:25.709Z,67.20
2022-12-14T06:29:27.441Z,73.63
2022-12-14T06:34:29.988Z,74.97
2022-12-14T06:39:36.330Z,67.13
2022-12-14T06:44:38.195Z,69.77
2022-12-14T06:49:42.622Z,70.40
2022-12-14T06:54:44.930Z,69.57
2022-12-14T06:59:50.865Z,69.13
2022-12-14T07:04:58.657Z,69.47
2022-12-14T07:10:03.932Z,71.93
2022-12-14T07:15:06.286Z,63.97
2022-12-14T07:20:12.822Z,66.67
2022-12-14T07:25:17.907Z,73.20
2022-12-14T07:30:21.962Z,61.33
2022-12-14T07:35:28.024Z,67.93
2022-12-14T07:40:33.964Z,65.43
2022-12-14T07:45:38.227Z,69.23
2022-12-14T07:50:40.082Z,64.37
2022-12-14T07:55:41.857Z,69.00
2022-12-14T08:00:47.934Z,68.07
2022-12-14T08:05:49.889Z,64.67
2022-12-14T08:10:54.601Z,65.80
2022-12-14T08:16:06.814Z,64.27
2022-12-14T08:21:12.714Z,78.10
2022-12-14T08:26:20.914Z,66.47
2022-12-14T08:31:25.451Z,62.37
2022-12-14T08:36:30.353Z,64.97
2022-12-14T08:41:32.413Z,66.10
2022-12-14T08:46:38.272Z,63.03
2022-12-14T08:51:40.277Z,63.87
2022-12-14T08:56:45.083Z,57.10
2022-12-14T09:01:48.928Z,50.80
2022-12-14T09:06:54.469Z,52.07
2022-12-14T09:12:06.589Z,57.53
2022-12-14T09:17:11.932Z,51.30
2022-12-14T09:22:17.523Z,54.27
2022-12-14T09:27:22.541Z,46.73
2022-12-14T09:32:27.148Z,50.13
2022-12-14T09:37:32.532Z,49.10
2022-12-14T09:42:50.733Z,46.67
2022-12-14T09:48:19.043Z,46.63
2022-12-14T09:53:23.519Z,47.30
2022-12-14T09:58:30.281Z,42.67
2022-12-14T10:03:58.445Z,41.50
2022-12-14T10:09:15.192Z,42.57
2022-12-14T10:14:22.216Z,39.17
2022-12-14T10:19:36.483Z,42.57
2022-12-14T10:24:49.571Z,37.37
2022-12-14T10:30:01.915Z,32.77
2022-12-14T10:35:18.862Z,36.13
2022-12-14T10:40:34.077Z,31.53
2022-12-14T10:45:52.399Z,28.47
2022-12-14T10:50:57.657Z,30.77
2022-12-14T10:56:08.866Z,25.73
2022-12-14T11:01:14.473Z,24.83
2022-12-14T11:06:19.402Z,24.57
2022-12-14T11:11:23.372Z,22.47
2022-12-14T11:16:39.983Z,23.00
2022-12-14T11:21:41.876Z,21.03
2022-12-14T11:26:46.642Z,20.97
2022-12-14T11:31:55.392Z,18.80
2022-12-14T11:37:11.528Z,15.30
2022-12-14T11:42:20.127Z,17.43
2022-12-14T11:47:24.426Z,17.67
2022-12-14T11:52:43.096Z,31.17
2022-12-14T11:57:56.321Z,42.90
2022-12-14T12:03:06.422Z,18.90
2022-12-14T12:08:22.847Z,21.70
2022-12-14T12:13:29.096Z,21.87
2022-12-14T12:18:46.795Z,23.20
2022-12-14T12:24:41.652Z,17.37
2022-12-14T12:30:03.733Z,19.50
2022-12-14T12:35:15.638Z,16.77
2022-12-14T12:40:37.753Z,19.00
2022-12-14T12:45:50.354Z,19.23
2022-12-14T12:51:01.325Z,21.07
2022-12-14T12:56:06.779Z,21.47
2022-12-14T13:01:37.568Z,17.80
2022-12-14T13:06:45.602Z,19.63
2022-12-14T13:11:49.111Z,19.45
2022-12-14T13:16:51.267Z,13.23
2022-12-14T13:22:03.346Z,14.93
2022-12-14T13:27:40.738Z,14.00
2022-12-14T13:33:06.380Z,16.17
2022-12-14T13:38:33.687Z,17.47
2022-12-14T13:44:04.479Z,14.17
2022-12-14T13:49:15.304Z,15.03
2022-12-14T13:54:27.786Z,14.70
2022-12-14T13:59:37.717Z,15.43
2022-12-14T14:04:44.275Z,17.77
2022-12-14T14:09:58.685Z,16.20
2022-12-14T14:15:00.449Z,15.77
2022-12-14T14:20:26.774Z,17.53
2022-12-14T14:25:34.517Z,19.10
2022-12-14T14:30:43.152Z,17.93
2022-12-14T14:35:44.899Z,18.87
2022-12-14T14:41:16.191Z,19.87
2022-12-14T14:46:23.152Z,17.70
2022-12-14T14:51:35.221Z,18.43
2022-12-14T14:56:38.428Z,20.53
2022-12-14T15:01:45.789Z,25.40
2022-12-14T15:06:51.202Z,22.55
2022-12-14T15:12:04.215Z,22.70
2022-12-14T15:17:22.873Z,22.67
2022-12-14T15:22:30.620Z,25.00
2022-12-14T15:27:37.304Z,27.80
2022-12-14T15:32:48.074Z,26.17
2022-12-14T15:37:59.969Z,34.10
2022-12-14T15:43:18.044Z,32.03
2022-12-14T15:48:23.759Z,29.07
2022-12-14T15:53:40.846Z,28.27
2022-12-14T15:58:48.329Z,28.83
2022-12-14T16:03:58.785Z,36.67
2022-12-14T16:09:09.032Z,30.67
2022-12-14T16:14:21.891Z,31.40
2022-12-14T16:19:28.146Z,30.80
2022-12-14T16:24:31.558Z,27.27
2022-12-14T16:29:34.104Z,49.97
2022-12-14T16:34:41.158Z,43.33
2022-12-14T16:39:47.788Z,68.03
2022-12-14T16:44:53.848Z,71.17
2022-12-14T16:50:00.179Z,65.40
2022-12-14T16:55:16.256Z,81.47
2022-12-14T17:00:36.105Z,56.10
2022-12-14T17:05:42.874Z,54.80
2022-12-14T17:10:47.456Z,41.67
2022-12-14T17:16:01.093Z,33.80
2022-12-14T17:21:06.401Z,37.70
2022-12-14T17:26:28.103Z,42.37
2022-12-14T17:31:32.427Z,40.27
2022-12-14T17:36:36.417Z,38.60
2022-12-14T17:41:41.207Z,41.10
2022-12-14T17:46:44.439Z,39.73
2022-12-14T17:51:50.668Z,330.77
2022-12-14T17:56:57.004Z,38.97
2022-12-14T18:02:02.087Z,46.83
2022-12-14T18:07:06.804Z,47.53
2022-12-14T18:12:23.025Z,52.13
2022-12-14T18:17:28.186Z,46.27
2022-12-14T18:22:37.417Z,35.83
2022-12-14T18:27:39.156Z,44.07
2022-12-14T18:32:45.718Z,43.30
2022-12-14T18:37:51.090Z,42.53
2022-12-14T18:42:55.351Z,38.17
2022-12-14T18:48:02.035Z,44.60
2022-12-14T18:53:16.834Z,42.60
2022-12-14T18:58:25.442Z,43.67
2022-12-14T19:03:33.315Z,42.63
2022-12-14T19:08:38.191Z,43.03
2022-12-14T19:13:39.977Z,42.47
2022-12-14T19:18:47.878Z,52.00
2022-12-14T19:23:49.506Z,53.17
2022-12-14T19:28:53.551Z,48.90
2022-12-14T19:33:55.792Z,50.50
2022-12-14T19:38:59.066Z,47.40
2022-12-14T19:44:08.462Z,49.67
2022-12-14T19:49:14.715Z,44.57
2022-12-14T19:54:18.792Z,40.17
2022-12-14T19:59:20.473Z,43.83
2022-12-14T20:04:22.999Z,46.67
2022-12-14T20:09:27.732Z,52.73
2022-12-14T20:14:31.792Z,48.07
2022-12-14T20:19:36.670Z,46.67
2022-12-14T20:24:40.825Z,34.10
2022-12-14T20:29:44.796Z,45.90
2022-12-14T20:34:46.604Z,45.80
2022-12-14T20:39:50.248Z,42.33
2022-12-14T20:44:55.392Z,44.50
2022-12-14T20:50:01.934Z,41.47
2022-12-14T20:55:08.865Z,44.27
2022-12-14T21:00:11.236Z,41.47
2022-12-14T21:05:18.211Z,40.03
2022-12-14T21:10:25.988Z,39.23
2022-12-14T21:15:30.930Z,41.37
2022-12-14T21:20:35.011Z,39.87
2022-12-14T21:25:44.227Z,41.10
2022-12-14T21:30:48.284Z,37.30
2022-12-14T21:35:52.554Z,36.43
2022-12-14T21:41:17.802Z,45.40
2022-12-14T21:46:20.060Z,41.50
2022-12-14T21:51:24.422Z,41.43
2022-12-14T21:56:46.280Z,30.77
2022-12-14T22:01:52.962Z,38.37
2022-12-14T22:06:55.219Z,38.10
2022-12-14T22:11:59.225Z,38.63
2022-12-14T22:17:00.995Z,36.90
2022-12-14T22:22:03.454Z,37.33
2022-12-14T22:27:08.160Z,35.77
2022-12-14T22:32:11.843Z,41.00
2022-12-14T22:37:19.287Z,39.83
2022-12-14T22:42:23.249Z,37.33
2022-12-14T22:47:29.086Z,34.83
2022-12-14T22:52:33.047Z,36.93
2022-12-14T22:57:41.441Z,32.33
2022-12-14T23:02:48.990Z,33.97
2022-12-14T23:07:53.330Z,35.47
2022-12-14T23:13:20.902Z,36.63
2022-12-14T23:18:40.897Z,33.10
2022-12-14T23:24:02.719Z,35.00
2022-12-14T23:29:26.002Z,41.30
2022-12-14T23:34:47.895Z,34.80
2022-12-14T23:40:10.610Z,35.03
2022-12-14T23:45:30.861Z,40.20
2022-12-14T23:50:51.177Z,38.03
2022-12-14T23:56:12.477Z,37.60
